createdAt,value
2022-11-18T00:01:18.502Z,6.90
2022-11-18T00:03:46.366Z,6.90
2022-11-18T00:06:23.660Z,6.90
2022-11-18T00:08:53.418Z,6.90
2022-11-18T00:11:42.739Z,6.90
2022-11-18T00:14:32.616Z,6.90
2022-11-18T00:17:01.586Z,6.90
2022-11-18T00:19:32.581Z,6.90
2022-11-18T00:22:00.401Z,6.90
2022-11-18T00:24:27.865Z,6.80
2022-11-18T00:26:56.513Z,6.90
2022-11-18T00:29:26.162Z,6.90
2022-11-18T00:31:53.322Z,6.90
2022-11-18T00:34:20.481Z,6.80
2022-11-18T00:36:48.207Z,6.90
2022-11-18T00:39:18.769Z,6.90
2022-11-18T00:42:05.902Z,6.80
2022-11-18T00:44:33.230Z,6.80
2022-11-18T00:47:02.702Z,6.80
2022-11-18T00:49:30.814Z,6.80
2022-11-18T00:51:57.666Z,6.80
2022-11-18T00:54:24.811Z,6.80
2022-11-18T00:56:51.988Z,6.80
2022-11-18T00:59:19.317Z,6.80
2022-11-18T01:01:46.567Z,6.70
2022-11-18T01:04:13.819Z,6.70
2022-11-18T01:06:41.167Z,6.70
2022-11-18T01:09:08.322Z,6.70
2022-11-18T01:11:53.649Z,6.70
2022-11-18T01:14:20.689Z,6.70
2022-11-18T01:16:51.559Z,6.70
2022-11-18T01:19:19.783Z,6.60
2022-11-18T01:21:47.163Z,6.70
2022-11-18T01:24:14.206Z,6.60
2022-11-18T01:26:41.590Z,6.60
2022-11-18T01:29:08.730Z,6.60
2022-11-18T01:31:35.714Z,6.60
2022-11-18T01:34:04.001Z,6.50
2022-11-18T01:36:30.941Z,6.50
2022-11-18T01:38:58.122Z,6.50
2022-11-18T01:41:27.511Z,6.50
2022-11-18T01:44:04.714Z,6.50
2022-11-18T01:46:34.399Z,6.50
2022-11-18T01:49:09.470Z,6.40
2022-11-18T01:51:53.021Z,6.40
2022-11-18T01:54:26.427Z,6.50
2022-11-18T01:57:00.478Z,6.40
2022-11-18T01:59:31.865Z,6.40
2022-11-18T02:02:01.184Z,6.40
2022-11-18T02:04:28.358Z,6.40
2022-11-18T02:06:56.505Z,6.40
2022-11-18T02:09:23.477Z,6.30
2022-11-18T02:11:50.901Z,6.30
2022-11-18T02:14:26.801Z,6.40
2022-11-18T02:17:20.609Z,6.40
2022-11-18T02:19:47.843Z,6.30
2022-11-18T02:22:47.473Z,6.30
2022-11-18T02:25:44.125Z,6.30
2022-11-18T02:28:27.798Z,6.30
2022-11-18T02:31:22.827Z,6.30
2022-11-18T02:34:32.518Z,6.30
2022-11-18T02:37:10.574Z,6.20
2022-11-18T02:39:45.834Z,6.20
2022-11-18T02:42:16.503Z,6.20
2022-11-18T02:44:52.062Z,6.20
2022-11-18T02:47:22.482Z,6.20
2022-11-18T02:49:55.360Z,6.20
2022-11-18T02:52:24.885Z,6.20
2022-11-18T02:54:53.791Z,6.10
2022-11-18T02:57:22.602Z,6.10
2022-11-18T02:59:49.538Z,6.10
2022-11-18T03:02:19.287Z,6.10
2022-11-18T03:04:48.596Z,6.10
2022-11-18T03:07:32.347Z,6.10
2022-11-18T03:10:00.993Z,6.10
2022-11-18T03:13:02.607Z,6.10
2022-11-18T03:15:44.660Z,6.00
2022-11-18T03:18:27.219Z,6.00
2022-11-18T03:21:07.306Z,6.00
2022-11-18T03:24:06.743Z,6.00
2022-11-18T03:26:46.372Z,5.90
2022-11-18T03:29:25.246Z,5.90
2022-11-18T03:32:00.958Z,5.90
2022-11-18T03:34:42.671Z,5.90
2022-11-18T03:37:14.009Z,5.90
2022-11-18T03:39:53.753Z,5.80
2022-11-18T03:42:41.756Z,5.80
2022-11-18T03:45:28.157Z,5.80
2022-11-18T03:48:12.744Z,5.80
2022-11-18T03:51:00.201Z,5.70
2022-11-18T03:53:31.170Z,5.80
2022-11-18T03:56:06.990Z,5.80
2022-11-18T03:58:48.887Z,5.70
2022-11-18T04:01:22.685Z,5.70
2022-11-18T04:03:49.901Z,5.60
2022-11-18T04:06:37.403Z,5.60
2022-11-18T04:09:12.046Z,5.60
2022-11-18T04:12:05.551Z,5.60
2022-11-18T04:14:42.496Z,5.60
2022-11-18T04:17:17.012Z,5.60
2022-11-18T04:19:44.117Z,5.50
2022-11-18T04:22:12.625Z,5.50
2022-11-18T04:24:40.378Z,5.50
2022-11-18T04:27:07.842Z,5.40
2022-11-18T04:29:35.016Z,5.40
2022-11-18T04:32:03.393Z,5.40
2022-11-18T04:34:30.807Z,5.40
2022-11-18T04:36:58.773Z,5.40
2022-11-18T04:39:26.157Z,5.40
2022-11-18T04:41:55.761Z,5.40
2022-11-18T04:44:30.908Z,5.40
2022-11-18T04:47:00.890Z,5.30
2022-11-18T04:49:28.920Z,5.30
2022-11-18T04:51:57.334Z,5.30
2022-11-18T04:54:26.060Z,5.30
2022-11-18T04:56:54.799Z,5.20
2022-11-18T04:59:25.871Z,5.30
2022-11-18T05:01:53.694Z,5.20
2022-11-18T05:04:27.366Z,5.20
2022-11-18T05:06:54.449Z,5.20
2022-11-18T05:09:24.809Z,5.20
2022-11-18T05:12:13.527Z,5.20
2022-11-18T05:14:45.223Z,5.20
2022-11-18T05:17:15.342Z,5.20
2022-11-18T05:19:42.204Z,5.20
2022-11-18T05:22:09.234Z,5.20
2022-11-18T05:24:36.605Z,5.20
2022-11-18T05:27:03.631Z,5.20
2022-11-18T05:29:30.496Z,5.10
2022-11-18T05:31:58.131Z,5.10
2022-11-18T05:34:25.482Z,5.10
2022-11-18T05:36:52.487Z,5.10
2022-11-18T05:39:20.019Z,5.10
2022-11-18T05:42:05.983Z,5.10
2022-11-18T05:44:33.726Z,5.10
2022-11-18T05:47:00.665Z,5.10
2022-11-18T05:49:27.841Z,5.10
2022-11-18T05:51:54.995Z,5.10
2022-11-18T05:54:22.149Z,5.00
2022-11-18T05:56:49.232Z,5.00
2022-11-18T05:59:17.062Z,5.00
2022-11-18T06:02:00.302Z,5.00
2022-11-18T06:04:42.068Z,4.90
2022-11-18T06:07:31.244Z,5.00
2022-11-18T06:10:05.773Z,4.90
2022-11-18T06:12:42.203Z,4.90
2022-11-18T06:15:38.873Z,4.90
2022-11-18T06:18:25.805Z,4.90
2022-11-18T06:20:59.922Z,4.90
2022-11-18T06:23:29.294Z,4.90
2022-11-18T06:25:56.525Z,4.90
2022-11-18T06:28:24.857Z,4.80
2022-11-18T06:30:51.740Z,4.80
2022-11-18T06:33:19.195Z,4.80
2022-11-18T06:35:47.026Z,4.80
2022-11-18T06:38:13.975Z,4.90
2022-11-18T06:40:44.603Z,4.80
2022-11-18T06:43:31.702Z,4.80
2022-11-18T06:46:22.753Z,4.60
2022-11-18T06:48:49.956Z,4.80
2022-11-18T06:51:17.310Z,4.80
2022-11-18T06:53:44.594Z,4.80
2022-11-18T06:56:15.209Z,4.80
2022-11-18T06:58:42.349Z,4.80
2022-11-18T07:01:23.744Z,4.80
2022-11-18T07:03:51.638Z,4.80
2022-11-18T07:06:29.427Z,4.80
2022-11-18T07:08:57.008Z,4.80
2022-11-18T07:11:26.026Z,4.80
2022-11-18T07:13:53.619Z,4.80
2022-11-18T07:16:24.615Z,4.80
2022-11-18T07:18:54.273Z,4.80
2022-11-18T07:21:25.020Z,4.80
2022-11-18T07:23:52.567Z,4.80
2022-11-18T07:26:20.087Z,4.80
2022-11-18T07:28:47.182Z,4.80
2022-11-18T07:31:17.146Z,4.80
2022-11-18T07:33:46.175Z,4.80
2022-11-18T07:36:28.616Z,4.80
2022-11-18T07:39:02.740Z,4.80
2022-11-18T07:41:31.125Z,4.80
2022-11-18T07:44:01.429Z,4.80
2022-11-18T07:46:35.659Z,4.80
2022-11-18T07:49:09.028Z,4.90
2022-11-18T07:51:39.235Z,4.90
2022-11-18T07:54:16.186Z,4.90
2022-11-18T07:56:43.727Z,4.90
2022-11-18T07:59:10.562Z,5.00
2022-11-18T08:01:37.847Z,4.90
2022-11-18T08:04:11.606Z,5.00
2022-11-18T08:06:39.531Z,5.00
2022-11-18T08:09:07.743Z,5.00
2022-11-18T08:11:35.384Z,5.00
2022-11-18T08:14:02.364Z,5.10
2022-11-18T08:16:29.797Z,5.10
2022-11-18T08:19:00.745Z,5.20
2022-11-18T08:21:28.037Z,5.20
2022-11-18T08:23:58.995Z,5.30
2022-11-18T08:26:27.334Z,5.40
2022-11-18T08:28:54.589Z,5.40
2022-11-18T08:31:25.663Z,5.50
2022-11-18T08:33:57.073Z,5.50
2022-11-18T08:36:27.657Z,5.60
2022-11-18T08:39:00.147Z,5.60
2022-11-18T08:41:41.546Z,5.60
2022-11-18T08:44:13.795Z,5.70
2022-11-18T08:46:42.720Z,5.70
2022-11-18T08:49:09.562Z,5.70
2022-11-18T08:51:36.662Z,5.70
2022-11-18T08:54:03.748Z,5.70
2022-11-18T08:56:31.014Z,5.70
2022-11-18T08:58:58.002Z,5.70
2022-11-18T09:01:25.085Z,5.70
2022-11-18T09:03:52.115Z,5.70
2022-11-18T09:06:22.819Z,5.60
2022-11-18T09:08:49.733Z,5.60
2022-11-18T09:11:20.686Z,5.60
2022-11-18T09:16:38.890Z,5.50
2022-11-18T09:19:31.565Z,5.40
2022-11-18T09:21:53.218Z,5.40
2022-11-18T09:24:20.649Z,5.30
2022-11-18T09:26:49.781Z,5.30
2022-11-18T09:29:16.785Z,5.30
2022-11-18T09:31:43.789Z,5.20
2022-11-18T09:34:10.780Z,5.20
2022-11-18T09:36:38.127Z,5.20
2022-11-18T09:39:05.256Z,5.20
2022-11-18T09:42:12.494Z,5.20
2022-11-18T09:44:46.856Z,5.20
2022-11-18T09:47:30.786Z,5.20
2022-11-18T09:50:41.735Z,5.20
2022-11-18T09:53:32.927Z,5.20
2022-11-18T09:56:00.121Z,5.30
2022-11-18T09:58:33.947Z,5.30
2022-11-18T10:01:02.718Z,5.30
2022-11-18T10:03:33.112Z,5.30
2022-11-18T10:06:09.935Z,5.30
2022-11-18T10:09:14.781Z,5.30
2022-11-18T10:12:23.825Z,5.30
2022-11-18T10:15:20.848Z,5.50
2022-11-18T10:18:31.991Z,5.40
2022-11-18T10:21:40.281Z,5.40
2022-11-18T10:24:24.343Z,5.30
2022-11-18T10:26:57.933Z,5.30
2022-11-18T10:29:25.976Z,5.30
2022-11-18T10:32:04.964Z,5.30
2022-11-18T10:34:34.763Z,5.30
2022-11-18T10:37:06.117Z,5.30
2022-11-18T10:39:34.095Z,5.30
2022-11-18T10:42:06.881Z,5.30
2022-11-18T10:44:41.570Z,5.30
2022-11-18T10:47:28.915Z,5.40
2022-11-18T10:49:59.395Z,5.40
2022-11-18T10:52:29.819Z,5.40
2022-11-18T10:55:11.789Z,5.40
2022-11-18T10:57:43.677Z,5.50
2022-11-18T11:00:44.685Z,5.40
2022-11-18T11:03:32.229Z,5.50
2022-11-18T11:06:20.880Z,5.50
2022-11-18T11:08:53.960Z,5.50
2022-11-18T11:12:02.677Z,5.50
2022-11-18T11:14:53.093Z,5.50
2022-11-18T11:18:10.645Z,5.50
2022-11-18T11:20:39.103Z,5.50
2022-11-18T11:23:10.786Z,5.50
2022-11-18T11:28:51.496Z,5.50
2022-11-18T11:31:44.702Z,5.50
2022-11-18T11:34:47.576Z,5.50
2022-11-18T11:37:41.953Z,5.60
2022-11-18T11:40:29.267Z,5.60
2022-11-18T11:43:14.501Z,5.60
2022-11-18T11:45:48.049Z,5.60
2022-11-18T11:48:55.484Z,5.60
2022-11-18T11:51:48.791Z,5.70
2022-11-18T11:54:42.451Z,5.70
2022-11-18T11:57:15.693Z,5.70
2022-11-18T12:00:12.574Z,5.70
2022-11-18T12:03:37.024Z,5.70
2022-11-18T12:06:04.206Z,5.80
2022-11-18T12:08:32.705Z,5.90
2022-11-18T12:11:21.708Z,5.90
2022-11-18T12:14:34.650Z,5.90
2022-11-18T12:17:19.104Z,6.00
2022-11-18T12:19:46.022Z,6.00
2022-11-18T12:22:12.950Z,6.10
2022-11-18T12:24:42.677Z,6.10
2022-11-18T12:27:09.440Z,6.20
2022-11-18T12:29:54.953Z,6.20
2022-11-18T12:32:43.780Z,6.30
2022-11-18T12:35:13.737Z,6.30
2022-11-18T12:38:28.429Z,6.40
2022-11-18T12:40:55.830Z,6.50
2022-11-18T12:43:44.056Z,6.50
2022-11-18T12:46:44.432Z,6.50
2022-11-18T12:49:22.063Z,6.70
2022-11-18T12:51:53.832Z,6.50
2022-11-18T12:54:35.165Z,6.50
2022-11-18T12:57:23.638Z,6.40
2022-11-18T12:59:51.326Z,6.40
2022-11-18T13:02:27.494Z,6.40
2022-11-18T13:05:09.467Z,6.40
2022-11-18T13:08:10.401Z,6.40
2022-11-18T13:11:33.815Z,6.40
2022-11-18T13:14:21.729Z,6.50
2022-11-18T13:17:07.392Z,6.80
2022-11-18T13:19:34.968Z,7.20
2022-11-18T13:22:21.724Z,7.70
2022-11-18T13:24:51.561Z,8.10
2022-11-18T13:27:32.935Z,8.50
2022-11-18T13:30:14.660Z,8.90
2022-11-18T13:32:47.132Z,9.30
2022-11-18T13:35:21.502Z,9.60
2022-11-18T13:38:01.289Z,10.00
2022-11-18T13:40:32.484Z,10.30
2022-11-18T13:42:59.464Z,10.50
2022-11-18T13:45:28.492Z,10.60
2022-11-18T13:48:02.819Z,10.60
2022-11-18T13:50:38.315Z,10.60
2022-11-18T13:53:31.823Z,10.50
2022-11-18T13:56:08.152Z,10.50
2022-11-18T14:01:40.162Z,10.50
2022-11-18T14:04:24.313Z,10.40
2022-11-18T14:06:51.398Z,10.40
2022-11-18T14:09:26.563Z,10.30
2022-11-18T14:12:14.778Z,10.30
2022-11-18T14:14:43.151Z,10.20
2022-11-18T14:17:26.547Z,10.20
2022-11-18T14:19:56.914Z,10.00
2022-11-18T14:22:27.316Z,10.00
2022-11-18T14:25:03.915Z,9.80
2022-11-18T14:27:42.469Z,9.80
2022-11-18T14:30:36.203Z,9.40
2022-11-18T14:33:13.415Z,9.20
2022-11-18T14:35:44.713Z,9.00
2022-11-18T14:38:38.906Z,8.80
2022-11-18T14:41:12.844Z,8.60
2022-11-18T14:43:40.078Z,8.30
2022-11-18T14:46:17.979Z,8.00
2022-11-18T14:48:46.355Z,7.80
2022-11-18T14:51:17.224Z,7.50
2022-11-18T14:53:44.837Z,7.30
2022-11-18T14:56:25.592Z,7.10
2022-11-18T14:58:53.280Z,6.80
2022-11-18T15:01:21.456Z,6.60
2022-11-18T15:03:50.203Z,6.40
2022-11-18T15:06:20.774Z,6.20
2022-11-18T15:08:51.879Z,6.00
2022-11-18T15:11:19.288Z,5.80
2022-11-18T15:13:46.812Z,5.60
2022-11-18T15:16:28.543Z,5.50
2022-11-18T15:19:01.026Z,5.30
2022-11-18T15:21:28.811Z,5.10
2022-11-18T15:23:55.766Z,5.00
2022-11-18T15:26:29.977Z,4.80
2022-11-18T15:28:58.073Z,4.70
2022-11-18T15:31:25.744Z,4.60
2022-11-18T15:33:53.772Z,4.40
2022-11-18T15:36:23.900Z,4.30
2022-11-18T15:38:52.461Z,4.20
2022-11-18T15:41:26.238Z,4.10
2022-11-18T15:43:55.453Z,4.00
2022-11-18T15:46:24.788Z,3.90
2022-11-18T15:48:57.169Z,3.80
2022-11-18T15:51:26.711Z,3.70
2022-11-18T15:53:54.343Z,3.60
2022-11-18T15:56:24.639Z,3.50
2022-11-18T15:58:59.879Z,3.40
2022-11-18T16:01:33.087Z,3.30
2022-11-18T16:04:00.287Z,3.20
2022-11-18T16:06:27.514Z,3.10
2022-11-18T16:08:59.918Z,3.10
2022-11-18T16:11:49.406Z,3.00
2022-11-18T16:14:19.875Z,2.90
2022-11-18T16:16:50.222Z,2.90
2022-11-18T16:19:20.133Z,2.70
2022-11-18T16:21:53.920Z,2.70
2022-11-18T16:24:25.659Z,2.60
2022-11-18T16:26:52.931Z,2.60
2022-11-18T16:29:21.053Z,2.50
2022-11-18T16:31:54.426Z,2.50
2022-11-18T16:34:28.612Z,2.40
2022-11-18T16:37:02.865Z,2.30
2022-11-18T16:39:30.136Z,2.30
2022-11-18T16:42:07.232Z,2.20
2022-11-18T16:44:36.198Z,2.20
2022-11-18T16:47:07.803Z,2.10
2022-11-18T16:49:38.068Z,2.10
2022-11-18T16:52:06.035Z,2.00
2022-11-18T16:54:33.857Z,2.00
2022-11-18T16:57:00.858Z,2.00
2022-11-18T16:59:30.711Z,1.90
2022-11-18T17:01:59.985Z,1.90
2022-11-18T17:04:28.952Z,1.90
2022-11-18T17:06:59.623Z,1.90
2022-11-18T17:09:27.263Z,2.00
2022-11-18T17:11:55.703Z,1.80
2022-11-18T17:14:23.529Z,1.80
2022-11-18T17:16:52.192Z,1.70
2022-11-18T17:19:22.402Z,1.70
2022-11-18T17:21:51.357Z,1.70
2022-11-18T17:24:21.858Z,1.70
2022-11-18T17:26:49.818Z,1.70
2022-11-18T17:29:17.178Z,1.70
2022-11-18T17:31:44.788Z,1.60
2022-11-18T17:34:14.623Z,1.60
2022-11-18T17:36:42.701Z,1.60
2022-11-18T17:39:11.639Z,1.50
2022-11-18T17:41:57.933Z,1.50
2022-11-18T17:44:25.413Z,1.50
2022-11-18T17:46:52.322Z,1.50
2022-11-18T17:49:21.388Z,1.40
2022-11-18T17:51:48.728Z,1.40
2022-11-18T17:54:16.226Z,1.40
2022-11-18T17:56:43.891Z,1.40
2022-11-18T17:59:10.977Z,1.30
2022-11-18T18:01:37.984Z,1.30
2022-11-18T18:04:05.598Z,1.30
2022-11-18T18:06:32.486Z,1.30
2022-11-18T18:08:59.690Z,1.30
2022-11-18T18:11:28.062Z,1.20
2022-11-18T18:14:13.718Z,1.20
2022-11-18T18:16:47.894Z,1.20
2022-11-18T18:19:18.629Z,1.20
2022-11-18T18:21:46.616Z,1.20
2022-11-18T18:24:19.667Z,1.20
2022-11-18T18:26:47.216Z,1.20
2022-11-18T18:29:14.614Z,1.10
2022-11-18T18:31:41.841Z,1.10
2022-11-18T18:34:08.740Z,1.10
2022-11-18T18:36:35.971Z,1.10
2022-11-18T18:39:03.616Z,1.10
2022-11-18T18:41:31.198Z,1.00
2022-11-18T18:43:58.135Z,1.00
2022-11-18T18:46:30.965Z,1.00
2022-11-18T18:49:13.675Z,1.00
2022-11-18T18:51:48.967Z,1.00
2022-11-18T18:54:18.872Z,1.00
2022-11-18T18:56:46.817Z,1.00
2022-11-18T18:59:13.776Z,0.90
2022-11-18T19:01:40.972Z,0.90
2022-11-18T19:04:11.263Z,0.90
2022-11-18T19:09:27.495Z,0.90
2022-11-18T19:12:13.104Z,0.90
2022-11-18T19:14:40.400Z,0.90
2022-11-18T19:17:11.131Z,0.80
2022-11-18T19:19:59.564Z,0.80
2022-11-18T19:22:31.043Z,0.80
2022-11-18T19:24:59.808Z,0.80
2022-11-18T19:27:27.247Z,0.80
2022-11-18T19:29:54.216Z,0.80
2022-11-18T19:32:21.368Z,0.80
2022-11-18T19:34:48.296Z,0.80
2022-11-18T19:37:15.176Z,0.80
2022-11-18T19:39:42.585Z,0.70
2022-11-18T19:42:10.980Z,0.70
2022-11-18T19:44:39.198Z,0.70
2022-11-18T19:47:06.438Z,0.70
2022-11-18T19:49:37.398Z,0.70
2022-11-18T19:52:05.888Z,0.70
2022-11-18T19:54:32.988Z,0.70
2022-11-18T19:57:03.797Z,0.70
2022-11-18T19:59:30.744Z,0.70
2022-11-18T20:01:58.033Z,0.70
2022-11-18T20:04:25.011Z,0.70
2022-11-18T20:06:51.966Z,0.70
2022-11-18T20:09:20.250Z,0.90
2022-11-18T20:11:47.450Z,0.70
2022-11-18T20:14:14.468Z,0.70
2022-11-18T20:16:41.927Z,0.70
2022-11-18T20:19:13.432Z,0.70
2022-11-18T20:21:43.377Z,0.70
2022-11-18T20:24:16.245Z,0.70
2022-11-18T20:26:44.306Z,0.70
2022-11-18T20:29:11.856Z,0.70
2022-11-18T20:31:39.022Z,0.70
2022-11-18T20:34:06.064Z,0.70
2022-11-18T20:36:35.827Z,0.70
2022-11-18T20:39:07.609Z,0.60
2022-11-18T20:41:36.391Z,0.70
2022-11-18T20:44:04.046Z,0.60
2022-11-18T20:46:31.445Z,0.60
2022-11-18T20:48:58.309Z,0.60
2022-11-18T20:51:28.106Z,0.60
2022-11-18T20:53:56.675Z,0.60
2022-11-18T20:56:26.172Z,0.60
2022-11-18T20:58:53.588Z,0.60
2022-11-18T21:01:25.519Z,0.60
2022-11-18T21:03:58.114Z,0.60
2022-11-18T21:06:29.767Z,0.60
2022-11-18T21:08:59.747Z,0.60
2022-11-18T21:11:27.619Z,0.50
2022-11-18T21:14:17.236Z,0.50
2022-11-18T21:16:49.055Z,0.50
2022-11-18T21:19:16.699Z,0.50
2022-11-18T21:21:48.805Z,0.50
2022-11-18T21:24:43.634Z,0.50
2022-11-18T21:27:10.514Z,0.50
2022-11-18T21:29:37.661Z,0.40
2022-11-18T21:32:05.163Z,0.40
2022-11-18T21:34:32.136Z,0.40
2022-11-18T21:36:59.251Z,0.40
2022-11-18T21:39:27.320Z,0.40
2022-11-18T21:41:56.551Z,0.40
2022-11-18T21:44:25.108Z,0.30
2022-11-18T21:46:52.613Z,0.40
2022-11-18T21:49:19.901Z,0.30
2022-11-18T21:51:47.233Z,0.30
2022-11-18T21:54:16.021Z,0.30
2022-11-18T21:56:43.181Z,0.30
2022-11-18T21:59:10.258Z,0.30
2022-11-18T22:01:37.520Z,0.30
2022-11-18T22:04:05.727Z,0.30
2022-11-18T22:06:34.365Z,0.30
2022-11-18T22:09:04.318Z,0.30
2022-11-18T22:11:31.346Z,0.20
2022-11-18T22:13:58.607Z,0.30
2022-11-18T22:16:27.572Z,0.20
2022-11-18T22:19:02.550Z,0.20
2022-11-18T22:21:31.108Z,0.20
2022-11-18T22:24:00.244Z,0.20
2022-11-18T22:26:28.356Z,0.20
2022-11-18T22:28:57.782Z,0.20
2022-11-18T22:31:27.733Z,0.10
2022-11-18T22:33:56.037Z,0.10
2022-11-18T22:36:26.481Z,0.10
2022-11-18T22:38:54.243Z,0.10
2022-11-18T22:41:49.266Z,0.10
2022-11-18T22:44:17.769Z,0.10
2022-11-18T22:46:45.796Z,0.10
2022-11-18T22:49:13.804Z,0.00
2022-11-18T22:51:40.914Z,0.00
2022-11-18T22:56:56.656Z,0.00
2022-11-18T22:59:24.275Z,0.00
2022-11-18T23:01:52.207Z,0.00
2022-11-18T23:04:19.613Z,0.00
2022-11-18T23:06:46.650Z,-0.10
2022-11-18T23:09:13.812Z,-0.10
2022-11-18T23:11:59.478Z,-0.10
2022-11-18T23:14:26.540Z,-0.10
2022-11-18T23:16:54.701Z,-0.10
2022-11-18T23:19:22.358Z,-0.10
2022-11-18T23:21:49.465Z,-0.10
2022-11-18T23:24:18.589Z,-0.10
2022-11-18T23:26:47.543Z,-0.10
2022-11-18T23:29:16.240Z,-0.10
2022-11-18T23:31:44.766Z,-0.10
2022-11-18T23:34:15.631Z,-0.10
2022-11-18T23:36:43.469Z,-0.10
2022-11-18T23:39:10.914Z,-0.10
2022-11-18T23:41:38.815Z,-0.20
2022-11-18T23:44:06.305Z,-0.20
2022-11-18T23:46:34.184Z,-0.20
2022-11-18T23:49:01.610Z,-0.20
2022-11-18T23:51:28.666Z,-0.20
2022-11-18T23:53:57.317Z,-0.20
2022-11-18T23:56:27.310Z,-0.20
2022-11-18T23:58:56.747Z,-0.20
